sensor_id;sensor_type;location;lat;lon;timestamp;P1;durP1;ratioP1;P2;durP2;ratioP2
22650;SDS011;11492;42.646;23.400;2023-03-23T00:01:09;95.63;;;45.13;;
22650;SDS011;11492;42.646;23.400;2023-03-23T00:03:39;82.53;;;43.28;;
22650;SDS011;11492;42.646;23.400;2023-03-23T00:06:06;84.75;;;44.88;;
22650;SDS011;11492;42.646;23.400;2023-03-23T00:08:36;88.15;;;43.75;;
22650;SDS011;11492;42.646;23.400;2023-03-23T00:11:06;77.45;;;42.20;;
22650;SDS011;11492;42.646;23.400;2023-03-23T00:13:32;77.50;;;41.67;;
22650;SDS011;11492;42.646;23.400;2023-03-23T00:15:58;62.70;;;36.47;;
22650;SDS011;11492;42.646;23.400;2023-03-23T00:18:24;63.05;;;34.65;;
22650;SDS011;11492;42.646;23.400;2023-03-23T00:20:56;64.90;;;35.63;;
22650;SDS011;11492;42.646;23.400;2023-03-23T00:23:25;56.00;;;30.38;;
22650;SDS011;11492;42.646;23.400;2023-03-23T00:25:52;49.30;;;27.75;;
22650;SDS011;11492;42.646;23.400;2023-03-23T00:28:22;37.33;;;23.02;;
22650;SDS011;11492;42.646;23.400;2023-03-23T00:30:53;29.77;;;18.25;;
22650;SDS011;11492;42.646;23.400;2023-03-23T00:33:27;26.63;;;15.73;;
22650;SDS011;11492;42.646;23.400;2023-03-23T00:35:54;23.58;;;14.85;;
22650;SDS011;11492;42.646;23.400;2023-03-23T00:38:21;20.17;;;13.13;;
22650;SDS011;11492;42.646;23.400;2023-03-23T00:40:48;22.55;;;13.52;;
22650;SDS011;11492;42.646;23.400;2023-03-23T00:43:16;20.52;;;13.13;;
22650;SDS011;11492;42.646;23.400;2023-03-23T00:45:43;19.20;;;11.98;;
22650;SDS011;11492;42.646;23.400;2023-03-23T00:48:10;20.25;;;11.88;;
22650;SDS011;11492;42.646;23.400;2023-03-23T00:50:37;19.20;;;11.43;;
22650;SDS011;11492;42.646;23.400;2023-03-23T00:53:03;18.63;;;12.00;;
22650;SDS011;11492;42.646;23.400;2023-03-23T00:55:29;17.88;;;11.77;;
22650;SDS011;11492;42.646;23.400;2023-03-23T00:57:55;18.35;;;11.63;;
22650;SDS011;11492;42.646;23.400;2023-03-23T01:00:21;19.85;;;11.02;;
22650;SDS011;11492;42.646;23.400;2023-03-23T01:02:47;21.77;;;11.40;;
22650;SDS011;11492;42.646;23.400;2023-03-23T01:05:13;17.88;;;10.90;;
22650;SDS011;11492;42.646;23.400;2023-03-23T01:07:39;17.52;;;11.23;;
22650;SDS011;11492;42.646;23.400;2023-03-23T01:10:05;19.10;;;11.23;;
22650;SDS011;11492;42.646;23.400;2023-03-23T01:12:31;17.77;;;11.95;;
22650;SDS011;11492;42.646;23.400;2023-03-23T01:14:56;21.45;;;12.70;;
22650;SDS011;11492;42.646;23.400;2023-03-23T01:17:21;18.33;;;12.45;;
22650;SDS011;11492;42.646;23.400;2023-03-23T01:19:47;23.10;;;12.93;;
22650;SDS011;11492;42.646;23.400;2023-03-23T01:22:12;21.42;;;12.32;;
22650;SDS011;11492;42.646;23.400;2023-03-23T01:24:38;21.60;;;13.35;;
22650;SDS011;11492;42.646;23.400;2023-03-23T01:27:03;24.52;;;13.95;;
22650;SDS011;11492;42.646;23.400;2023-03-23T01:29:34;24.95;;;13.50;;
22650;SDS011;11492;42.646;23.400;2023-03-23T01:32:00;24.38;;;13.23;;
22650;SDS011;11492;42.646;23.400;2023-03-23T01:34:26;20.30;;;13.35;;
22650;SDS011;11492;42.646;23.400;2023-03-23T01:36:52;23.45;;;13.38;;
22650;SDS011;11492;42.646;23.400;2023-03-23T01:39:17;21.38;;;12.70;;
22650;SDS011;11492;42.646;23.400;2023-03-23T01:41:43;23.70;;;13.25;;
22650;SDS011;11492;42.646;23.400;2023-03-23T01:46:43;23.17;;;13.52;;
22650;SDS011;11492;42.646;23.400;2023-03-23T01:51:47;20.58;;;13.38;;
22650;SDS011;11492;42.646;23.400;2023-03-23T01:54:17;26.90;;;13.95;;
22650;SDS011;11492;42.646;23.400;2023-03-23T01:56:47;23.00;;;14.02;;
22650;SDS011;11492;42.646;23.400;2023-03-23T01:59:21;21.90;;;13.50;;
22650;SDS011;11492;42.646;23.400;2023-03-23T02:01:49;24.08;;;14.52;;
22650;SDS011;11492;42.646;23.400;2023-03-23T02:04:17;25.58;;;15.15;;
22650;SDS011;11492;42.646;23.400;2023-03-23T02:06:43;28.90;;;16.20;;
22650;SDS011;11492;42.646;23.400;2023-03-23T02:09:10;30.23;;;16.17;;
22650;SDS011;11492;42.646;23.400;2023-03-23T02:11:38;28.13;;;17.48;;
22650;SDS011;11492;42.646;23.400;2023-03-23T02:14:04;30.42;;;18.63;;
22650;SDS011;11492;42.646;23.400;2023-03-23T02:26:59;36.00;;;19.58;;
22650;SDS011;11492;42.646;23.400;2023-03-23T02:35:05;36.15;;;21.42;;
22650;SDS011;11492;42.646;23.400;2023-03-23T02:40:25;42.72;;;23.70;;
22650;SDS011;11492;42.646;23.400;2023-03-23T02:43:00;45.42;;;25.00;;
22650;SDS011;11492;42.646;23.400;2023-03-23T02:45:31;41.42;;;23.02;;
22650;SDS011;11492;42.646;23.400;2023-03-23T02:47:59;35.75;;;21.30;;
22650;SDS011;11492;42.646;23.400;2023-03-23T02:50:27;38.95;;;23.65;;
22650;SDS011;11492;42.646;23.400;2023-03-23T02:52:54;44.80;;;23.67;;
22650;SDS011;11492;42.646;23.400;2023-03-23T02:55:21;41.63;;;23.50;;
22650;SDS011;11492;42.646;23.400;2023-03-23T02:57:51;44.35;;;24.40;;
22650;SDS011;11492;42.646;23.400;2023-03-23T03:00:17;38.42;;;23.15;;
22650;SDS011;11492;42.646;23.400;2023-03-23T03:02:53;38.22;;;22.58;;
22650;SDS011;11492;42.646;23.400;2023-03-23T03:07:56;42.20;;;24.90;;
22650;SDS011;11492;42.646;23.400;2023-03-23T03:21:27;89.20;;;34.70;;
22650;SDS011;11492;42.646;23.400;2023-03-23T03:23:55;156.25;;;38.60;;
22650;SDS011;11492;42.646;23.400;2023-03-23T03:26:25;79.30;;;36.50;;
22650;SDS011;11492;42.646;23.400;2023-03-23T03:28:53;223.20;;;38.28;;
22650;SDS011;11492;42.646;23.400;2023-03-23T03:31:20;96.68;;;34.75;;
22650;SDS011;11492;42.646;23.400;2023-03-23T03:33:48;63.47;;;34.78;;
22650;SDS011;11492;42.646;23.400;2023-03-23T03:36:17;160.32;;;37.47;;
22650;SDS011;11492;42.646;23.400;2023-03-23T03:38:46;232.27;;;38.25;;
22650;SDS011;11492;42.646;23.400;2023-03-23T03:41:13;393.35;;;40.13;;
22650;SDS011;11492;42.646;23.400;2023-03-23T03:43:39;278.48;;;37.28;;
22650;SDS011;11492;42.646;23.400;2023-03-23T03:46:04;137.15;;;35.08;;
22650;SDS011;11492;42.646;23.400;2023-03-23T03:48:30;109.13;;;34.08;;
22650;SDS011;11492;42.646;23.400;2023-03-23T03:50:55;95.22;;;32.20;;
22650;SDS011;11492;42.646;23.400;2023-03-23T03:53:22;75.72;;;31.40;;
22650;SDS011;11492;42.646;23.400;2023-03-23T03:55:48;49.05;;;29.75;;
22650;SDS011;11492;42.646;23.400;2023-03-23T03:58:15;52.47;;;29.00;;
22650;SDS011;11492;42.646;23.400;2023-03-23T04:00:41;44.78;;;27.35;;
22650;SDS011;11492;42.646;23.400;2023-03-23T04:03:07;47.92;;;28.83;;
22650;SDS011;11492;42.646;23.400;2023-03-23T04:05:34;46.28;;;27.20;;
22650;SDS011;11492;42.646;23.400;2023-03-23T04:08:01;43.38;;;26.48;;
22650;SDS011;11492;42.646;23.400;2023-03-23T04:10:28;44.22;;;26.92;;
22650;SDS011;11492;42.646;23.400;2023-03-23T04:12:55;45.25;;;26.75;;
22650;SDS011;11492;42.646;23.400;2023-03-23T04:15:20;43.60;;;26.52;;
22650;SDS011;11492;42.646;23.400;2023-03-23T04:17:46;45.83;;;27.60;;
22650;SDS011;11492;42.646;23.400;2023-03-23T04:20:12;46.38;;;27.30;;
22650;SDS011;11492;42.646;23.400;2023-03-23T04:22:42;45.63;;;27.60;;
22650;SDS011;11492;42.646;23.400;2023-03-23T04:25:09;46.03;;;26.90;;
22650;SDS011;11492;42.646;23.400;2023-03-23T04:27:36;39.15;;;24.33;;
22650;SDS011;11492;42.646;23.400;2023-03-23T04:30:01;39.85;;;22.52;;
22650;SDS011;11492;42.646;23.400;2023-03-23T04:32:28;36.13;;;22.27;;
22650;SDS011;11492;42.646;23.400;2023-03-23T04:34:57;33.67;;;19.48;;
22650;SDS011;11492;42.646;23.400;2023-03-23T04:37:24;37.63;;;19.25;;
22650;SDS011;11492;42.646;23.400;2023-03-23T04:39:53;27.55;;;16.42;;
22650;SDS011;11492;42.646;23.400;2023-03-23T04:42:32;28.83;;;16.98;;
22650;SDS011;11492;42.646;23.400;2023-03-23T04:44:58;29.85;;;16.48;;
22650;SDS011;11492;42.646;23.400;2023-03-23T04:47:24;30.70;;;16.48;;
22650;SDS011;11492;42.646;23.400;2023-03-23T04:49:57;28.42;;;17.40;;
22650;SDS011;11492;42.646;23.400;2023-03-23T04:52:24;32.80;;;16.90;;
22650;SDS011;11492;42.646;23.400;2023-03-23T04:54:50;31.65;;;17.30;;
22650;SDS011;11492;42.646;23.400;2023-03-23T04:57:16;30.58;;;17.50;;
22650;SDS011;11492;42.646;23.400;2023-03-23T04:59:42;31.60;;;18.13;;
22650;SDS011;11492;42.646;23.400;2023-03-23T05:02:09;27.98;;;16.80;;
22650;SDS011;11492;42.646;23.400;2023-03-23T05:04:35;28.25;;;17.17;;
22650;SDS011;11492;42.646;23.400;2023-03-23T05:07:02;24.80;;;15.45;;
22650;SDS011;11492;42.646;23.400;2023-03-23T05:09:28;26.95;;;15.05;;
22650;SDS011;11492;42.646;23.400;2023-03-23T05:11:54;25.13;;;13.52;;
22650;SDS011;11492;42.646;23.400;2023-03-23T05:14:19;24.02;;;13.45;;
22650;SDS011;11492;42.646;23.400;2023-03-23T05:16:46;23.05;;;13.85;;
22650;SDS011;11492;42.646;23.400;2023-03-23T05:19:13;22.88;;;13.15;;
22650;SDS011;11492;42.646;23.400;2023-03-23T05:21:39;23.00;;;13.70;;
22650;SDS011;11492;42.646;23.400;2023-03-23T05:24:05;23.25;;;13.20;;
22650;SDS011;11492;42.646;23.400;2023-03-23T05:26:31;21.17;;;13.50;;
22650;SDS011;11492;42.646;23.400;2023-03-23T05:28:57;22.92;;;13.43;;
22650;SDS011;11492;42.646;23.400;2023-03-23T05:31:24;21.00;;;12.95;;
22650;SDS011;11492;42.646;23.400;2023-03-23T05:33:50;25.02;;;16.52;;
22650;SDS011;11492;42.646;23.400;2023-03-23T05:36:15;35.65;;;19.17;;
22650;SDS011;11492;42.646;23.400;2023-03-23T05:38:41;129.60;;;78.90;;
22650;SDS011;11492;42.646;23.400;2023-03-23T05:41:13;36.70;;;19.50;;
22650;SDS011;11492;42.646;23.400;2023-03-23T05:43:39;33.58;;;19.17;;
22650;SDS011;11492;42.646;23.400;2023-03-23T05:46:04;40.75;;;22.55;;
22650;SDS011;11492;42.646;23.400;2023-03-23T05:48:30;31.15;;;18.17;;
22650;SDS011;11492;42.646;23.400;2023-03-23T05:50:55;26.25;;;14.75;;
22650;SDS011;11492;42.646;23.400;2023-03-23T05:53:21;30.02;;;13.65;;
22650;SDS011;11492;42.646;23.400;2023-03-23T05:55:48;24.02;;;13.82;;
22650;SDS011;11492;42.646;23.400;2023-03-23T05:58:14;20.27;;;12.68;;
22650;SDS011;11492;42.646;23.400;2023-03-23T06:00:39;25.13;;;13.25;;
22650;SDS011;11492;42.646;23.400;2023-03-23T06:03:05;27.75;;;12.75;;
22650;SDS011;11492;42.646;23.400;2023-03-23T06:05:31;23.77;;;14.20;;
22650;SDS011;11492;42.646;23.400;2023-03-23T06:07:57;21.42;;;12.77;;
22650;SDS011;11492;42.646;23.400;2023-03-23T06:10:24;24.52;;;13.40;;
22650;SDS011;11492;42.646;23.400;2023-03-23T06:12:50;30.95;;;19.90;;
22650;SDS011;11492;42.646;23.400;2023-03-23T06:15:18;37.67;;;19.50;;
22650;SDS011;11492;42.646;23.400;2023-03-23T06:17:44;30.60;;;19.50;;
22650;SDS011;11492;42.646;23.400;2023-03-23T06:20:10;40.13;;;22.83;;
22650;SDS011;11492;42.646;23.400;2023-03-23T06:22:37;35.72;;;21.95;;
22650;SDS011;11492;42.646;23.400;2023-03-23T06:25:04;39.28;;;22.30;;
22650;SDS011;11492;42.646;23.400;2023-03-23T06:27:31;33.67;;;21.33;;
22650;SDS011;11492;42.646;23.400;2023-03-23T06:29:56;36.97;;;20.42;;
22650;SDS011;11492;42.646;23.400;2023-03-23T06:32:22;30.08;;;18.50;;
22650;SDS011;11492;42.646;23.400;2023-03-23T06:34:49;28.65;;;16.77;;
22650;SDS011;11492;42.646;23.400;2023-03-23T06:37:15;30.20;;;18.42;;
22650;SDS011;11492;42.646;23.400;2023-03-23T06:39:41;39.88;;;22.02;;
22650;SDS011;11492;42.646;23.400;2023-03-23T06:42:10;40.33;;;23.70;;
22650;SDS011;11492;42.646;23.400;2023-03-23T06:44:37;42.63;;;23.88;;
22650;SDS011;11492;42.646;23.400;2023-03-23T06:47:02;47.78;;;25.42;;
22650;SDS011;11492;42.646;23.400;2023-03-23T06:49:28;57.53;;;29.58;;
22650;SDS011;11492;42.646;23.400;2023-03-23T06:51:53;50.20;;;27.63;;
22650;SDS011;11492;42.646;23.400;2023-03-23T06:54:21;46.75;;;27.80;;
22650;SDS011;11492;42.646;23.400;2023-03-23T06:56:46;55.47;;;28.40;;
22650;SDS011;11492;42.646;23.400;2023-03-23T06:59:12;47.53;;;25.13;;
22650;SDS011;11492;42.646;23.400;2023-03-23T07:01:37;51.40;;;25.77;;
22650;SDS011;11492;42.646;23.400;2023-03-23T07:04:03;50.70;;;26.55;;
22650;SDS011;11492;42.646;23.400;2023-03-23T07:06:28;49.25;;;26.27;;
22650;SDS011;11492;42.646;23.400;2023-03-23T07:08:54;51.70;;;26.17;;
22650;SDS011;11492;42.646;23.400;2023-03-23T07:11:19;43.78;;;26.65;;
22650;SDS011;11492;42.646;23.400;2023-03-23T07:13:45;51.97;;;27.83;;
22650;SDS011;11492;42.646;23.400;2023-03-23T07:16:11;48.17;;;26.52;;
22650;SDS011;11492;42.646;23.400;2023-03-23T07:18:36;50.88;;;27.45;;
22650;SDS011;11492;42.646;23.400;2023-03-23T07:21:02;47.08;;;27.67;;
22650;SDS011;11492;42.646;23.400;2023-03-23T07:23:28;48.13;;;26.67;;
22650;SDS011;11492;42.646;23.400;2023-03-23T07:25:54;53.33;;;27.90;;
22650;SDS011;11492;42.646;23.400;2023-03-23T07:28:20;49.78;;;27.40;;
22650;SDS011;11492;42.646;23.400;2023-03-23T07:30:46;59.65;;;28.58;;
22650;SDS011;11492;42.646;23.400;2023-03-23T07:33:11;52.45;;;27.23;;
22650;SDS011;11492;42.646;23.400;2023-03-23T07:35:37;51.83;;;27.42;;
22650;SDS011;11492;42.646;23.400;2023-03-23T07:38:03;53.88;;;27.65;;
22650;SDS011;11492;42.646;23.400;2023-03-23T07:40:31;52.38;;;26.92;;
22650;SDS011;11492;42.646;23.400;2023-03-23T07:42:59;55.30;;;27.65;;
22650;SDS011;11492;42.646;23.400;2023-03-23T07:45:26;50.58;;;26.98;;
22650;SDS011;11492;42.646;23.400;2023-03-23T07:47:53;51.30;;;28.35;;
22650;SDS011;11492;42.646;23.400;2023-03-23T07:50:19;44.88;;;26.75;;
22650;SDS011;11492;42.646;23.400;2023-03-23T07:52:49;45.33;;;27.77;;
22650;SDS011;11492;42.646;23.400;2023-03-23T07:55:15;45.35;;;27.42;;
22650;SDS011;11492;42.646;23.400;2023-03-23T07:57:45;53.42;;;27.77;;
22650;SDS011;11492;42.646;23.400;2023-03-23T08:00:16;50.63;;;26.92;;
22650;SDS011;11492;42.646;23.400;2023-03-23T08:02:48;47.20;;;26.48;;
22650;SDS011;11492;42.646;23.400;2023-03-23T08:05:24;48.35;;;25.25;;
22650;SDS011;11492;42.646;23.400;2023-03-23T08:07:51;43.15;;;24.88;;
22650;SDS011;11492;42.646;23.400;2023-03-23T08:10:19;44.67;;;24.35;;
22650;SDS011;11492;42.646;23.400;2023-03-23T08:12:49;39.15;;;22.52;;
22650;SDS011;11492;42.646;23.400;2023-03-23T08:15:16;39.38;;;21.27;;
22650;SDS011;11492;42.646;23.400;2023-03-23T08:17:42;32.75;;;20.15;;
22650;SDS011;11492;42.646;23.400;2023-03-23T08:20:08;36.83;;;18.27;;
22650;SDS011;11492;42.646;23.400;2023-03-23T08:22:39;33.05;;;17.17;;
22650;SDS011;11492;42.646;23.400;2023-03-23T08:25:06;29.58;;;17.75;;
22650;SDS011;11492;42.646;23.400;2023-03-23T08:27:33;29.15;;;15.18;;
22650;SDS011;11492;42.646;23.400;2023-03-23T08:29:58;23.77;;;14.20;;
22650;SDS011;11492;42.646;23.400;2023-03-23T08:32:24;24.33;;;13.88;;
22650;SDS011;11492;42.646;23.400;2023-03-23T08:34:50;30.17;;;15.88;;
22650;SDS011;11492;42.646;23.400;2023-03-23T08:37:16;30.02;;;16.13;;
22650;SDS011;11492;42.646;23.400;2023-03-23T08:39:42;26.00;;;14.80;;
22650;SDS011;11492;42.646;23.400;2023-03-23T08:42:10;27.80;;;15.13;;
22650;SDS011;11492;42.646;23.400;2023-03-23T08:44:36;24.77;;;14.48;;
22650;SDS011;11492;42.646;23.400;2023-03-23T08:47:02;30.48;;;14.70;;
22650;SDS011;11492;42.646;23.400;2023-03-23T08:49:30;22.85;;;12.18;;
22650;SDS011;11492;42.646;23.400;2023-03-23T08:51:58;19.45;;;12.95;;
22650;SDS011;11492;42.646;23.400;2023-03-23T08:54:23;27.60;;;14.57;;
22650;SDS011;11492;42.646;23.400;2023-03-23T08:56:49;24.00;;;13.43;;
22650;SDS011;11492;42.646;23.400;2023-03-23T08:59:16;19.65;;;13.00;;
22650;SDS011;11492;42.646;23.400;2023-03-23T09:01:41;26.80;;;12.90;;
22650;SDS011;11492;42.646;23.400;2023-03-23T09:04:07;12.82;;;9.73;;
22650;SDS011;11492;42.646;23.400;2023-03-23T09:06:37;17.58;;;10.27;;
22650;SDS011;11492;42.646;23.400;2023-03-23T09:09:03;13.60;;;10.00;;
22650;SDS011;11492;42.646;23.400;2023-03-23T09:11:33;15.82;;;9.85;;
22650;SDS011;11492;42.646;23.400;2023-03-23T09:13:59;10.18;;;7.18;;
22650;SDS011;11492;42.646;23.400;2023-03-23T09:16:25;14.13;;;8.43;;
22650;SDS011;11492;42.646;23.400;2023-03-23T09:18:51;11.20;;;8.25;;
22650;SDS011;11492;42.646;23.400;2023-03-23T09:21:17;14.23;;;8.10;;
22650;SDS011;11492;42.646;23.400;2023-03-23T09:23:42;14.18;;;8.35;;
22650;SDS011;11492;42.646;23.400;2023-03-23T09:26:09;14.85;;;8.32;;
22650;SDS011;11492;42.646;23.400;2023-03-23T09:28:35;15.23;;;8.20;;
22650;SDS011;11492;42.646;23.400;2023-03-23T09:31:01;13.77;;;8.48;;
22650;SDS011;11492;42.646;23.400;2023-03-23T09:33:26;11.70;;;8.52;;
22650;SDS011;11492;42.646;23.400;2023-03-23T09:35:53;12.95;;;7.80;;
22650;SDS011;11492;42.646;23.400;2023-03-23T09:38:19;18.70;;;7.70;;
22650;SDS011;11492;42.646;23.400;2023-03-23T09:41:13;12.85;;;7.07;;
22650;SDS011;11492;42.646;23.400;2023-03-23T09:46:40;12.00;;;6.90;;
22650;SDS011;11492;42.646;23.400;2023-03-23T09:49:14;9.23;;;6.68;;
22650;SDS011;11492;42.646;23.400;2023-03-23T09:52:01;9.13;;;6.50;;
22650;SDS011;11492;42.646;23.400;2023-03-23T09:54:34;10.35;;;6.63;;
22650;SDS011;11492;42.646;23.400;2023-03-23T09:57:05;9.70;;;6.68;;
22650;SDS011;11492;42.646;23.400;2023-03-23T10:05:35;10.20;;;6.10;;
22650;SDS011;11492;42.646;23.400;2023-03-23T10:08:10;10.98;;;6.50;;
22650;SDS011;11492;42.646;23.400;2023-03-23T10:10:47;9.13;;;6.15;;
22650;SDS011;11492;42.646;23.400;2023-03-23T10:13:27;8.25;;;6.25;;
22650;SDS011;11492;42.646;23.400;2023-03-23T10:15:59;9.18;;;6.25;;
22650;SDS011;11492;42.646;23.400;2023-03-23T10:18:32;9.77;;;6.03;;
22650;SDS011;11492;42.646;23.400;2023-03-23T10:20:59;8.32;;;6.43;;
22650;SDS011;11492;42.646;23.400;2023-03-23T10:26:20;8.95;;;5.93;;
22650;SDS011;11492;42.646;23.400;2023-03-23T10:29:27;10.40;;;6.32;;
22650;SDS011;11492;42.646;23.400;2023-03-23T10:31:49;9.18;;;6.10;;
22650;SDS011;11492;42.646;23.400;2023-03-23T10:37:12;8.40;;;5.47;;
22650;SDS011;11492;42.646;23.400;2023-03-23T10:39:45;10.63;;;6.28;;
22650;SDS011;11492;42.646;23.400;2023-03-23T10:42:28;10.67;;;6.40;;
22650;SDS011;11492;42.646;23.400;2023-03-23T10:44:57;9.63;;;6.20;;
22650;SDS011;11492;42.646;23.400;2023-03-23T10:47:24;13.35;;;6.22;;
22650;SDS011;11492;42.646;23.400;2023-03-23T10:49:53;10.85;;;6.25;;
22650;SDS011;11492;42.646;23.400;2023-03-23T10:52:35;11.75;;;6.00;;
22650;SDS011;11492;42.646;23.400;2023-03-23T10:58:07;8.55;;;6.60;;
22650;SDS011;11492;42.646;23.400;2023-03-23T11:00:48;9.73;;;6.00;;
22650;SDS011;11492;42.646;23.400;2023-03-23T11:05:43;11.50;;;6.28;;
22650;SDS011;11492;42.646;23.400;2023-03-23T11:08:15;10.43;;;6.00;;
22650;SDS011;11492;42.646;23.400;2023-03-23T11:11:08;8.02;;;5.30;;
22650;SDS011;11492;42.646;23.400;2023-03-23T11:13:37;8.40;;;5.72;;
22650;SDS011;11492;42.646;23.400;2023-03-23T11:16:08;9.35;;;5.95;;
22650;SDS011;11492;42.646;23.400;2023-03-23T11:21:05;9.85;;;5.80;;
22650;SDS011;11492;42.646;23.400;2023-03-23T11:23:37;10.77;;;5.80;;
22650;SDS011;11492;42.646;23.400;2023-03-23T11:26:27;8.45;;;5.63;;
22650;SDS011;11492;42.646;23.400;2023-03-23T11:28:59;8.43;;;5.25;;
22650;SDS011;11492;42.646;23.400;2023-03-23T11:31:47;7.95;;;5.40;;
22650;SDS011;11492;42.646;23.400;2023-03-23T11:40:15;6.55;;;5.28;;
22650;SDS011;11492;42.646;23.400;2023-03-23T11:47:59;7.82;;;5.70;;
22650;SDS011;11492;42.646;23.400;2023-03-23T11:50:37;8.98;;;5.50;;
22650;SDS011;11492;42.646;23.400;2023-03-23T11:53:12;7.20;;;5.20;;
22650;SDS011;11492;42.646;23.400;2023-03-23T11:56:08;6.22;;;4.88;;
22650;SDS011;11492;42.646;23.400;2023-03-23T12:01:10;6.63;;;5.22;;
22650;SDS011;11492;42.646;23.400;2023-03-23T12:06:22;12.10;;;5.40;;
22650;SDS011;11492;42.646;23.400;2023-03-23T12:44:24;8.07;;;4.70;;
22650;SDS011;11492;42.646;23.400;2023-03-23T12:47:35;8.02;;;4.38;;
22650;SDS011;11492;42.646;23.400;2023-03-23T12:53:20;8.68;;;5.15;;
22650;SDS011;11492;42.646;23.400;2023-03-23T12:58:34;8.80;;;5.07;;
22650;SDS011;11492;42.646;23.400;2023-03-23T13:01:08;8.57;;;5.00;;
22650;SDS011;11492;42.646;23.400;2023-03-23T13:03:58;8.73;;;5.33;;
22650;SDS011;11492;42.646;23.400;2023-03-23T13:12:13;7.78;;;6.00;;
22650;SDS011;11492;42.646;23.400;2023-03-23T13:23:02;7.90;;;5.60;;
22650;SDS011;11492;42.646;23.400;2023-03-23T13:28:04;11.43;;;5.50;;
22650;SDS011;11492;42.646;23.400;2023-03-23T13:30:30;8.68;;;5.90;;
22650;SDS011;11492;42.646;23.400;2023-03-23T13:33:03;13.43;;;6.22;;
22650;SDS011;11492;42.646;23.400;2023-03-23T13:35:34;9.88;;;6.03;;
22650;SDS011;11492;42.646;23.400;2023-03-23T13:38:18;12.68;;;5.70;;
22650;SDS011;11492;42.646;23.400;2023-03-23T13:40:48;9.55;;;6.20;;
22650;SDS011;11492;42.646;23.400;2023-03-23T13:43:24;7.50;;;4.97;;
22650;SDS011;11492;42.646;23.400;2023-03-23T13:45:54;7.88;;;5.38;;
22650;SDS011;11492;42.646;23.400;2023-03-23T13:48:23;12.32;;;6.03;;
22650;SDS011;11492;42.646;23.400;2023-03-23T13:51:23;11.32;;;5.75;;
22650;SDS011;11492;42.646;23.400;2023-03-23T13:56:56;12.10;;;6.30;;
22650;SDS011;11492;42.646;23.400;2023-03-23T13:59:34;8.02;;;5.60;;
22650;SDS011;11492;42.646;23.400;2023-03-23T14:07:53;7.65;;;5.80;;
22650;SDS011;11492;42.646;23.400;2023-03-23T14:10:21;8.43;;;5.35;;
22650;SDS011;11492;42.646;23.400;2023-03-23T14:12:49;10.68;;;5.55;;
22650;SDS011;11492;42.646;23.400;2023-03-23T14:15:17;11.27;;;5.50;;
22650;SDS011;11492;42.646;23.400;2023-03-23T14:17:43;7.25;;;5.35;;
22650;SDS011;11492;42.646;23.400;2023-03-23T14:20:32;9.35;;;5.88;;
22650;SDS011;11492;42.646;23.400;2023-03-23T14:22:58;7.90;;;5.85;;
22650;SDS011;11492;42.646;23.400;2023-03-23T14:25:29;7.78;;;5.57;;
22650;SDS011;11492;42.646;23.400;2023-03-23T14:27:58;14.70;;;5.63;;
22650;SDS011;11492;42.646;23.400;2023-03-23T14:30:27;12.43;;;5.70;;
22650;SDS011;11492;42.646;23.400;2023-03-23T14:33:05;10.48;;;5.70;;
22650;SDS011;11492;42.646;23.400;2023-03-23T14:35:34;11.27;;;5.60;;
22650;SDS011;11492;42.646;23.400;2023-03-23T14:38:03;7.30;;;5.03;;
22650;SDS011;11492;42.646;23.400;2023-03-23T14:40:29;11.77;;;5.72;;
22650;SDS011;11492;42.646;23.400;2023-03-23T14:42:56;20.23;;;7.53;;
22650;SDS011;11492;42.646;23.400;2023-03-23T14:45:23;13.98;;;6.60;;
22650;SDS011;11492;42.646;23.400;2023-03-23T14:47:54;12.10;;;6.50;;
22650;SDS011;11492;42.646;23.400;2023-03-23T14:50:29;10.40;;;6.25;;
22650;SDS011;11492;42.646;23.400;2023-03-23T14:53:07;9.25;;;6.30;;
22650;SDS011;11492;42.646;23.400;2023-03-23T14:55:43;10.23;;;6.00;;
22650;SDS011;11492;42.646;23.400;2023-03-23T14:58:13;13.00;;;6.57;;
22650;SDS011;11492;42.646;23.400;2023-03-23T15:00:41;9.48;;;6.28;;
22650;SDS011;11492;42.646;23.400;2023-03-23T15:03:12;9.85;;;5.97;;
22650;SDS011;11492;42.646;23.400;2023-03-23T15:05:48;8.40;;;6.28;;
22650;SDS011;11492;42.646;23.400;2023-03-23T15:10:52;8.93;;;5.93;;
22650;SDS011;11492;42.646;23.400;2023-03-23T15:13:20;11.90;;;6.28;;
22650;SDS011;11492;42.646;23.400;2023-03-23T15:15:46;12.15;;;6.00;;
22650;SDS011;11492;42.646;23.400;2023-03-23T15:18:25;9.93;;;5.43;;
22650;SDS011;11492;42.646;23.400;2023-03-23T15:20:56;12.55;;;6.25;;
22650;SDS011;11492;42.646;23.400;2023-03-23T15:23:24;8.70;;;5.82;;
22650;SDS011;11492;42.646;23.400;2023-03-23T15:25:53;7.03;;;5.57;;
22650;SDS011;11492;42.646;23.400;2023-03-23T15:28:31;12.20;;;6.45;;
22650;SDS011;11492;42.646;23.400;2023-03-23T15:31:00;14.60;;;5.95;;
22650;SDS011;11492;42.646;23.400;2023-03-23T15:33:35;16.92;;;6.35;;
22650;SDS011;11492;42.646;23.400;2023-03-23T15:36:06;12.10;;;5.82;;
22650;SDS011;11492;42.646;23.400;2023-03-23T15:38:42;11.45;;;5.80;;
22650;SDS011;11492;42.646;23.400;2023-03-23T15:41:20;7.20;;;4.85;;
22650;SDS011;11492;42.646;23.400;2023-03-23T15:43:50;8.73;;;5.28;;
22650;SDS011;11492;42.646;23.400;2023-03-23T15:51:38;21.17;;;5.80;;
22650;SDS011;11492;42.646;23.400;2023-03-23T15:54:07;13.07;;;6.43;;
22650;SDS011;11492;42.646;23.400;2023-03-23T15:56:36;16.15;;;6.55;;
22650;SDS011;11492;42.646;23.400;2023-03-23T15:59:02;10.73;;;6.40;;
22650;SDS011;11492;42.646;23.400;2023-03-23T16:01:28;11.25;;;6.45;;
22650;SDS011;11492;42.646;23.400;2023-03-23T16:06:30;17.30;;;6.22;;
22650;SDS011;11492;42.646;23.400;2023-03-23T16:08:57;13.38;;;6.43;;
22650;SDS011;11492;42.646;23.400;2023-03-23T16:11:24;20.23;;;6.80;;
22650;SDS011;11492;42.646;23.400;2023-03-23T16:13:51;15.60;;;6.85;;
22650;SDS011;11492;42.646;23.400;2023-03-23T16:18:51;20.13;;;6.35;;
22650;SDS011;11492;42.646;23.400;2023-03-23T16:21:17;15.02;;;6.03;;
22650;SDS011;11492;42.646;23.400;2023-03-23T16:23:42;10.35;;;6.30;;
22650;SDS011;11492;42.646;23.400;2023-03-23T16:26:10;13.30;;;6.35;;
22650;SDS011;11492;42.646;23.400;2023-03-23T16:28:36;12.38;;;6.40;;
22650;SDS011;11492;42.646;23.400;2023-03-23T16:31:03;13.43;;;5.95;;
22650;SDS011;11492;42.646;23.400;2023-03-23T16:33:28;15.15;;;6.13;;
22650;SDS011;11492;42.646;23.400;2023-03-23T16:35:54;15.15;;;6.88;;
22650;SDS011;11492;42.646;23.400;2023-03-23T16:38:21;11.20;;;6.22;;
22650;SDS011;11492;42.646;23.400;2023-03-23T16:40:47;13.73;;;6.70;;
22650;SDS011;11492;42.646;23.400;2023-03-23T16:43:12;14.23;;;6.55;;
22650;SDS011;11492;42.646;23.400;2023-03-23T16:45:39;10.25;;;6.20;;
22650;SDS011;11492;42.646;23.400;2023-03-23T16:48:05;11.32;;;6.97;;
22650;SDS011;11492;42.646;23.400;2023-03-23T16:50:32;22.38;;;7.10;;
22650;SDS011;11492;42.646;23.400;2023-03-23T16:52:58;16.77;;;7.00;;
22650;SDS011;11492;42.646;23.400;2023-03-23T16:55:24;12.68;;;6.32;;
22650;SDS011;11492;42.646;23.400;2023-03-23T16:57:51;22.55;;;7.25;;
22650;SDS011;11492;42.646;23.400;2023-03-23T17:00:17;15.85;;;6.70;;
22650;SDS011;11492;42.646;23.400;2023-03-23T17:02:49;17.35;;;6.50;;